METAR v bližini

 

LIPQ - Ronchi Legionari, Italy
Oddaljenost od postaje: JZ 35km
Podatki zajeti: 20/09/2020 18:20
Jasno
Jasno
 Veter iz smeri ZJZ
Veter: ZJZ 11 km/h
Temperatura: 24°C
Temp. rosišča: 12°C
Vlažnost: 47%
Tlak: 1014 hPa
Oblačnost: Jasno
Vidljivost: 10 km
2020/09/20 16:20 LIPQ 201620Z AUTO 25006KT 9999 NCD 24/12 Q1014
LIVT - Trieste, Italy
Oddaljenost od postaje: J 49km
Podatki zajeti: 20/09/2020 17:55
Jasno
Jasno
 Veter iz smeri spremenljiv
Veter: spremenljiv 0 km/h
Temperatura: 23°C
Temp. rosišča: 17°C
Vlažnost: 69%
Tlak: 1014 hPa
Stanje: Jasno
Vidljivost: večja od 10 km
2020/09/20 15:55 LIVT 201555Z /////KT CAVOK 23/17 Q1014 RMK SCT SCT200 QUK 0 QUL 0 VIS MAR 20 KM VIS MIN 9999
 
LIVO - Tarvisio, Italy
Oddaljenost od postaje: SSZ 49km
Podatki zajeti: 20/09/2020 17:55
Jasno
Jasno
 Veter iz smeri JJV
Veter: JJV 9 km/h
Temperatura: 18°C
Temp. rosišča: 13°C
Vlažnost: 73%
Tlak: 1016 hPa
Stanje: Jasno
Vidljivost: večja od 10 km
2020/09/20 15:55 LIVO 201555Z 16005KT CAVOK 18/13 Q1016 RMK FEW FEW060 VIS MIN 9999
LIPI - Rivolto (it-Afb), Italy
Oddaljenost od postaje: ZJZ 57km
Podatki zajeti: 19/09/2020 01:55
Ni posodobljen
Jasno
Jasno
 Veter iz smeri SV
Veter: SV 9 km/h
Temperatura: 16°C
Temp. rosišča: 12°C
Vlažnost: 77%
Tlak: 1021 hPa
Stanje: Jasno
Vidljivost: večja od 10 km
2020/09/18 23:55 LIPI 182355Z 04005KT CAVOK 16/12 Q1021 RMK SKC VIS MIN 9999 WIND THR06 08004KT WIND THR24 07006KT BLU
 
LJLJ - Ljubljana/Brnik, Slovenia
Oddaljenost od postaje: VSV 59km
Podatki zajeti: 20/09/2020 18:30
Jasno
Jasno
 Veter iz smeri spremenljiv
Veter: spremenljiv 2 km/h
Temperatura: 18°C
Temp. rosišča: 14°C
Vlažnost: 78%
Tlak: 1016 hPa
Stanje: Jasno
Vidljivost: večja od 10 km
2020/09/20 16:30 LJLJ 201630Z VRB01KT CAVOK 18/14 Q1016 NOSIG
LJPZ - Portoroz, Slovenia
Oddaljenost od postaje: J 68km
Podatki zajeti: 20/09/2020 18:30
Jasno
Jasno
 Veter iz smeri ZJZ
Veter: ZJZ 6 km/h
Temperatura: 23°C
Temp. rosišča: 15°C
Vlažnost: 61%
Tlak: 1014 hPa
Stanje: Jasno
Vidljivost: večja od 10 km
2020/09/20 16:30 LJPZ 201630Z 24003KT 200V280 CAVOK 23/15 Q1014
 
LOWK - Klagenfurt(Civ/M, Austria
Oddaljenost od postaje: SV 78km
Podatki zajeti: 20/09/2020 18:50
Rahlo oblačno
Rahlo oblačno
 Veter iz smeri V
Veter: V 6 km/h
Temperatura: 20°C
Temp. rosišča: 10°C
Vlažnost: 53%
Tlak: 1016 hPa
Oblačnost: Rahlo oblačno
Vidljivost: 10 km
Podrobnosti o oblakih: Rahlo oblačno 1829 m
2020/09/20 16:50 LOWK 201650Z 10003KT 050V150 9999 FEW060 20/10 Q1016 NOSIG
LIYW - Aviano (usaf), Italy
Oddaljenost od postaje: Z 86km
Podatki zajeti: 20/10/2015 15:58
Ni posodobljen
Jasno
Jasno
 Veter iz smeri JJZ
Veter: JJZ 6 km/h
Temperatura: 17°C
Temp. rosišča: 3°C
Vlažnost: 39%
Tlak: 1016.3 hPa
Oblačnost: Jasno
Vidljivost: 10 km
2015/10/20 13:58 LIYW 201358Z AUTO 21003KT 9999 CLR 17/03 A3001 RMK AO2 SLP167 T01660029
 
LIPA - Aviano (it/Us-Af, Italy
Oddaljenost od postaje: Z 89km
Podatki zajeti: 18/09/2020 19:55
Ni posodobljen
Jasno
Jasno
 Veter iz smeri S
Veter: S 11 km/h
Temperatura: 22°C
Temp. rosišča: 15°C
Vlažnost: 65%
Tlak: 1019 hPa
Stanje: Jasno
Vidljivost: večja od 10 km
2020/09/18 17:55 LIPA 181755Z 01006KT CAVOK 22/15 Q1019 RMK SKC VIS MIN 9999 WIND THR05 /////KT WIND THR23 /////KT A3012 BLU
LDRI - Rijeka/Omisalj, Croatia
Oddaljenost od postaje: JV 115km
Podatki zajeti: 20/09/2020 18:30
Jasno
Jasno
 Veter iz smeri SZ
Veter: SZ 7 km/h
Temperatura: 23°C
Temp. rosišča: 10°C
Vlažnost: 44%
Tlak: 1014 hPa
Stanje: Jasno
Vidljivost: večja od 10 km
2020/09/20 16:30 LDRI 201630Z 32004KT CAVOK 23/10 Q1014
 
LIPZ - Venezia/Tessera, Italy
Oddaljenost od postaje: ZJZ 127km
Podatki zajeti: 20/09/2020 18:50
Jasno
Jasno
 Veter iz smeri JZ
Veter: JZ 6 km/h
Temperatura: 22°C
Temp. rosišča: 16°C
Vlažnost: 69%
Tlak: 1014 hPa
Stanje: Jasno
Vidljivost: večja od 10 km
2020/09/20 16:50 LIPZ 201650Z 22003KT CAVOK 22/16 Q1014 NOSIG
LDPL - Pula, Croatia
Oddaljenost od postaje: J 133km
Podatki zajeti: 20/09/2020 18:30
Jasno
Jasno
 Veter iz smeri Z
Veter: Z 9 km/h
Temperatura: 22°C
Temp. rosišča: 16°C
Vlažnost: 69%
Tlak: 1015 hPa
Stanje: Jasno
Vidljivost: večja od 10 km
2020/09/20 16:30 LDPL 201630Z 26005KT CAVOK 22/16 Q1015 NOSIG
 
LIPS - Istrana (it-Afb), Italy
Oddaljenost od postaje: ZJZ 136km
Podatki zajeti: 20/09/2020 17:55
Jasno
Jasno
 Veter iz smeri J
Veter: J 13 km/h
Temperatura: 25°C
Temp. rosišča: 18°C
Vlažnost: 65%
Tlak: 1015 hPa
Stanje: Jasno
Vidljivost: večja od 10 km
2020/09/20 15:55 LIPS 201555Z 19007KT CAVOK 25/18 Q1015 RMK BKN BKN160 VIS MIN 9999 WIND THR26 15004KT WIND THR08 17005KT BLU
LIVD - Dobbiaco, Italy
Oddaljenost od postaje: ZSZ 137km
Podatki zajeti: 20/09/2020 17:55
Delno oblačno
Delno oblačno
 Veter iz smeri spremenljiv
Veter: spremenljiv 0 km/h
Temperatura: 17°C
Temp. rosišča: 14°C
Vlažnost: 83%
Tlak: 1018 hPa
Oblačnost: Delno oblačno
Vidljivost: 10 km
Podrobnosti o oblakih: Delno oblačno 1219 m
2020/09/20 15:55 LIVD 201555Z /////KT 9999 SCT040 17/14 Q1018 RMK BKN SCT100 VIS MIN 9999 BLU
 
LJCE - Cerklje, Slovenia
Oddaljenost od postaje: V 139km
Podatki zajeti: 20/09/2020 18:30
Jasno
Jasno
 Veter iz smeri V
Veter: V 9 km/h
Temperatura: 20°C
Temp. rosišča: 11°C
Vlažnost: 56%
Tlak: 1016 hPa
Stanje: Jasno
Vidljivost: večja od 10 km
2020/09/20 16:30 LJCE 201630Z 08005KT CAVOK 20/11 Q1016 RMK BLU
LOXZ - Zeltweg (mil), Austria
Oddaljenost od postaje: SSV 147km
Podatki zajeti: 20/09/2020 18:50
Rahlo oblačno
Rahlo oblačno
 Veter iz smeri VJV
Veter: VJV 11 km/h
Temperatura: 17°C
Temp. rosišča: 10°C
Vlažnost: 64%
Tlak: 1017 hPa
Oblačnost: Rahlo oblačno
Podrobnosti o oblakih: Rahlo oblačno 1372 m
2020/09/20 16:50 LOXZ 201650Z 12006KT 090V150 15KM FEW045SC 17/10 Q1017 NOSIG
sucontract_SNC